AirNav   Everest Fuels
 
 1101 users online  

KMGY Dayton/Wright Brothers Airport
Dayton, Ohio, USA

GOING TO DAYTON?


FAA INFORMATION EFFECTIVE 26 JANUARY 2023

Location

FAA Identifier: MGY
Lat/Long: 39-35-20.3000N 084-13-29.5000W
39-35.338333N 084-13.491667W
39.5889722,-84.2248611
(estimated)
Elevation: 956.6 ft. / 291.6 m (surveyed)
Variation: 04W (1995)
From city: 10 miles S of DAYTON, OH
Time zone: UTC -5 (UTC -4 during Daylight Saving Time)
Zip code: 45342

Airport Operations

Airport use: Open to the public
Activation date: 12/1957
Control tower: no
ARTCC: INDIANAPOLIS CENTER
FSS: DAYTON FLIGHT SERVICE STATION
NOTAMs facility: MGY (NOTAM-D service available)
Attendance: 0700-2000
Wind indicator: lighted
Segmented circle: no
Lights: ACTVT MALS RWY 20; PAPI RWY 02 & 20; MIRL RWY 02/20 - CTAF. TWY LGTS OPR CONSLY SS-SR.
Beacon: white-green (lighted land airport)
Operates sunset to sunrise.

Airport Communications

CTAF/UNICOM: 122.8
WX ASOS: 118.375 (937-885-2171)
COLUMBUS APPROACH: 118.85
COLUMBUS DEPARTURE: 118.85
CLEARANCE DELIVERY: 119.4
CLASS C: 118.85
IC: 118.85
WX AWOS-3 at I68 (8 nm S): 120.55 (513-934-5500)
WX AWOS-3 at MWO (9 nm SW): 120.025 (513-422-3505)
WX AWOS-3 at I19 (12 nm NE): 118.525 (937-372-4668)
WX AWOS-3 at I66 (18 nm E): 124.175 (937-382-1376)
WX ASOS at DAY (19 nm N): PHONE 937-415-6819
WX ASOS at HAO (19 nm SW): 121.425 (513-863-6137)

Nearby radio navigation aids

VOR radial/distance  VOR name  Freq  Var
MXQr300/21.8MIDWEST VOR/DME112.9004W
DQNr164/26.8DAYTON VOR/DME114.5001W

 
NDB name  Hdg/Dist  Freq  Var  ID
ONIDA086/4.622304WMW -- .--
HOOK FIELD066/11.623904WHKF .... -.- ..-.
SPORTYS003/30.724504WPWF .--. .-- ..-.
COURT HOUSE275/38.541406WCSS -.-. ... ...

Airport Services

Fuel available: 100LL JET-A JET-A+
Parking: hangars and tiedowns
Airframe service: MAJOR
Powerplant service: MAJOR
Bottled oxygen: HIGH/LOW
Bulk oxygen: NONE

Runway Information

Runway 2/20

Dimensions: 5000 x 100 ft. / 1524 x 30 m
Surface: asphalt/grooved, in good condition
Weight bearing capacity: 
Single wheel: 50.0
Double wheel: 60.0
Runway edge lights: medium intensity
RUNWAY 2  RUNWAY 20
Latitude: 39-34.956500N39-35.718747N
Longitude: 084-13.692647W084-13.289923W
Elevation: 936.2 ft.956.6 ft.
Traffic pattern: leftleft
Runway heading: 026 magnetic, 022 true206 magnetic, 202 true
Displaced threshold: no590 ft.
Declared distances: TORA:5000 TODA:5000 ASDA:4700 LDA:4700TORA:5000 TODA:5000 ASDA:5000 LDA:4410
Markings: nonprecision, in fair conditionnonprecision, in fair condition
Visual slope indicator: 2-light PAPI on left (3.00 degrees glide path)4-light PAPI on left (3.00 degrees glide path)
PAPI UNUSBL BYD 7 DEGS RIGHT OF CNTRLN.
Approach lights: MALS: 1,400 foot medium intensity approach lighting system
Runway end identifier lights: no
Touchdown point: yes, no lightsyes, no lights
Instrument approach: LOC/DME
Obstructions: none25 ft. road, 540 ft. from runway, 300 ft. right of centerline, 13:1 slope to clear
APCH SLP 34:1 TO DTHR.

Airport Ownership and Management from official FAA records

Ownership: Publicly-owned
Owner: CITY OF DAYTON
3600 TERMINAL DR STE 300
VANDALIA, OH 45377-1095
Phone 937-885-4121
Manager: BRANDON ELLIS
10550 N SPRINGBORO PIKE
MIAMISBURG, OH 45342-4956
Phone 937-454-8230
CELL 937-776-2194.

Airport Operational Statistics

Aircraft based on the field: 75
Single engine airplanes: 51
Multi engine airplanes: 10
Jet airplanes: 7
Helicopters: 7
    
Aircraft operations: avg 106/day *
70% local general aviation
28% transient general aviation
2% air taxi
<1% military
* for 12-month period ending 08 September 2022

Additional Remarks

DEER, BIRDS, & OTR WILDLIFE ON & INVOF ARPT.
SFC CONDS UNMON 1530-0700 WKDAYS & ALL DAY WKENDS/HOLS.
FULL PWR MAINT RUNUPS PROHIBITED IN THE HLDG APN AT THE NW CORNER OF TWY A 0800-1700 WKDAYS.

Instrument Procedures

NOTE: All procedures below are presented as PDF files. If you need a reader for these files, you should download the free Adobe Reader.

NOT FOR NAVIGATION. Please procure official charts for flight.
FAA instrument procedures published for use from 26 January 2023 at 0901Z to 23 February 2023 at 0900z.

 
STARs - Standard Terminal Arrivals
DANEI THREE   download (171KB)
 
IAPs - Instrument Approach Procedures
RNAV (GPS) RWY 02   download
RNAV (GPS) RWY 20   download
LOC RWY 20   download
NDB-A   download
NOTE: Special Alternate Minimums apply   download (167KB)
NOTE: Special Take-Off Minimums/Departure Procedures apply   download (474KB)

Other nearby airports with instrument procedures:

I73 - Moraine Air Park (6 nm N)
I68 - Warren County Airport/John Lane Field (8 nm S)
KMWO - Middletown Regional Airport/Hook Field (9 nm SW)
I19 - Greene County/Lewis A Jackson Regional Airport (12 nm NE)
KFFO - Wright-Patterson Air Force Base (16 nm NE)
I66 - Clinton Field Airport (18 nm E)
KDAY - James M Cox Dayton International Airport (19 nm N)
KHAO - Butler County Regional Airport/Hogan Field (19 nm SW)
 
Loc | Ops | Rwys | IFR | FBO | Links
Com | Nav | Svcs | Stats | Notes
Area around KMGY (Dayton/Wright Brothers Airport)
 
Road maps at: MapQuest Bing Google
 
Aerial photo
WARNING: Photo may not be current or correct
Aerial photo of KMGY (Dayton/Wright Brothers Airport)
Photo taken 25-Oct-2011
looking east.

Do you have a better or more recent aerial photo of Dayton/Wright Brothers Airport that you would like to share? If so, please send us your photo.

 
Sectional chart

 
Airport distance calculator
Flying to Dayton/Wright Brothers Airport? Find the distance to fly.

From to KMGY

Sunrise and sunset
Times for 02-Feb-2023
 Local
(UTC-5)
 Zulu
(UTC)
Morning civil twilight07:1612:16
Sunrise07:4512:45
Sunset17:5722:57
Evening civil twilight18:2523:25

Current date and time
Zulu (UTC)  03-Feb-2023 00:46:24
Local (UTC-5)  02-Feb-2023 19:46:24
 
METAR
KMGY 022353Z AUTO 23010KT 10SM CLR 02/M11 A3007 RMK AO2 SLP193 T00171106 10033 20017 56002
KI68 
8nm S 
030035Z AUTO 24007KT 10SM CLR 00/M08 A3010 RMK AO1 T00031077
KMWO 
9nm SW 
030035Z AUTO 23007KT 10SM CLR M01/M10 A3012 RMK AO2 T10071096
KFFO 
16nm NE 
022355Z AUTO 22009KT 10SM CLR M00/M09 A3003 RMK AO2 SLP183 T10021089 10035 21002 55002
KDAY 
19nm N 
022356Z 23015KT 10SM SCT250 01/M09 A3006 RMK AO2 SLP191 T00111089 10039 20011 56000
KHAO 
19nm SW 
022353Z AUTO 23004KT 10SM CLR M01/M09 A3012 RMK AO2 SLP210 T10061094 10044 21006 55002
TAF
KFFO 
16nm NE 
021905Z 0219/0401 25012KT 9999 BKN240 QNH3003INS TEMPO 0219/0223 24012G22KT BECMG 0302/0303 31010G15KT 9999 VCSH BKN030 610302 520102 QNH3010INS TEMPO 0304/0311 32015G25KT 9000 -SHSN SCT015 OVC025 610254 BECMG 0315/0316 31010G15KT 9999 NSW SCT030 510102 QNH3042INS BECMG 0323/0324 33009KT 9999 SCT090 SCT250 QNH3049INS TX04/0220Z TNM10/0312Z
KDAY 
19nm N 
021738Z 0218/0318 22013KT P6SM SCT250 FM030300 32012G21KT P6SM BKN020 FM031100 34011KT P6SM OVC030 FM031700 33009KT P6SM BKN040
NOTAMs
Click for the latest NOTAMs
NOTAMs are issued by the DoD/FAA and will open in a separate window not controlled by AirNav.

 

 
 

FBO, Fuel Providers, and Aircraft Ground Support

  
 Business Name 
 
 Contact 
 
 Services / Description 
 
Fuel Prices
 
Comments
  
 First Flight Aviation
UNICOM 122.80
937-885-5580
937-313-6573
[web site]
[email]
First Flight Aviation is a FAA Certified Repair Station (GA5R-876M) and full service FBO. We are certified for maintenance on Piston, Turboprop and Jet Aircraft. Our objective is to make owning any aircraft the most satisfying experience in aviation. Overnight heated hangar space available!
 
Crew car   FAA-Approved Repair Station   Cirrus  
 
More info about First Flight Aviation
Avfuel
100LL Jet A
FS $6.49 $6.23 
 Updated 31-Jan-2023
 
   2 read write
FS=Full service
Update Fuel Prices
 

Would you like to see your business listed on this page?

 If your business provides an interesting product or service to pilots, flight crews, aircraft, or users of the Dayton/Wright Brothers Airport, you should consider listing it here.  To start the listing process, click on the button below
 
Add a business
 

Other Pages about Dayton/Wright Brothers Airport

Update a link
 
Copyright © AirNav, LLC. All rights reserved. Privacy Policy  Contact